Time;durP1;ratioP1;P1;durP2;ratioP2;P2;SDS_P1;SDS_P2;PMS_P1;PMS_P2;Temp;Humidity;BMP_temperature;BMP_pressure;BME280_temperature;BME280_humidity;BME280_pressure;Samples;Min_cycle;Max_cycle;Signal;HPM_P1;HPM_P2
2023/09/01 00:04:34;;;;;;;3.63;1.60;;;;;;;20.30;57.58;96573.34;10402611;28;20037;-29
2023/09/01 00:09:36;;;;;;;4.67;1.50;;;;;;;20.36;57.59;96568.22;10407851;28;20080;-28
2023/09/01 00:14:36;;;;;;;1.65;1.23;;;;;;;20.36;57.92;96576.66;10403557;28;20790;-28
2023/09/01 00:19:37;;;;;;;4.03;1.40;;;;;;;20.32;57.77;96574.16;10407805;28;20041;-28
2023/09/01 00:24:37;;;;;;;2.27;1.47;;;;;;;20.38;57.88;96580.06;10405341;28;20709;-28
2023/09/01 00:29:37;;;;;;;3.33;1.33;;;;;;;20.42;57.22;96575.78;10402737;28;20045;-27
2023/09/01 00:34:38;;;;;;;2.00;1.07;;;;;;;20.38;57.86;96578.34;10412174;28;20053;-28
2023/09/01 00:39:38;;;;;;;3.60;1.33;;;;;;;20.35;57.45;96586.88;10413490;28;20766;-28
2023/09/01 00:44:38;;;;;;;3.07;1.30;;;;;;;20.42;58.96;96585.09;10414689;28;20294;-27
2023/09/01 00:49:40;;;;;;;1.73;1.07;;;;;;;20.42;57.91;96575.78;10412538;28;20037;-28
2023/09/01 00:54:40;;;;;;;2.80;1.25;;;;;;;20.45;58.69;96577.44;10414149;28;20053;-28
2023/09/01 00:59:40;;;;;;;2.60;1.20;;;;;;;20.44;57.47;96575.75;10407325;28;20061;-28
2023/09/01 01:04:41;;;;;;;2.93;1.10;;;;;;;20.45;57.46;96572.34;10413967;28;20033;-28
2023/09/01 01:09:50;;;;;;;1.90;0.90;;;;;;;20.33;57.69;96575.88;10410554;28;20033;-29
2023/09/01 01:14:56;;;;;;;3.08;1.00;;;;;;;20.30;57.83;96568.25;10404874;28;20288;-28
2023/09/01 01:20:16;;;;;;;1.48;1.00;;;;;;;20.36;58.33;96580.94;10406358;28;20044;-28
2023/09/01 01:25:17;;;;;;;1.70;1.10;;;;;;;20.35;58.01;96580.06;10405304;28;20044;-28
2023/09/01 01:30:17;;;;;;;4.05;1.20;;;;;;;20.32;58.15;96581.78;10404428;28;20042;-28
2023/09/01 01:35:28;;;;;;;1.87;1.33;;;;;;;20.38;58.21;96581.75;10406502;28;20033;-27
2023/09/01 01:40:30;;;;;;;2.20;1.50;;;;;;;20.38;58.12;96585.16;10411598;28;20499;-28
2023/09/01 01:45:31;;;;;;;2.25;0.95;;;;;;;20.34;58.35;96592.81;10401008;28;20029;-28
2023/09/01 01:50:32;;;;;;;2.53;1.17;;;;;;;20.43;59.13;96594.41;10407327;28;20059;-29
2023/09/01 01:55:36;;;;;;;2.17;1.00;;;;;;;20.42;58.45;96602.03;10411659;28;20487;-28
2023/09/01 02:00:36;;;;;;;1.45;1.08;;;;;;;20.27;57.97;96594.53;10404950;28;20064;-29
2023/09/01 02:05:37;;;;;;;2.37;1.20;;;;;;;20.27;58.42;96586.09;10405112;28;20112;-28
2023/09/01 02:10:37;;;;;;;1.70;1.00;;;;;;;20.36;58.72;96591.09;10408943;28;20407;-29
2023/09/01 02:15:37;;;;;;;1.70;1.13;;;;;;;20.38;58.48;96595.31;10408704;28;20303;-29
2023/09/01 02:20:38;;;;;;;2.13;1.00;;;;;;;20.33;58.61;96601.31;10409631;28;20647;-28
2023/09/01 02:25:38;;;;;;;2.07;1.00;;;;;;;20.33;58.63;96597.03;10404811;28;20288;-27
2023/09/01 02:30:41;;;;;;;1.60;1.10;;;;;;;20.28;58.52;96597.94;10402129;28;20029;-28
2023/09/01 02:35:44;;;;;;;2.03;1.20;;;;;;;20.38;59.22;96594.47;10410093;28;20348;-28
2023/09/01 02:40:44;;;;;;;2.05;0.90;;;;;;;20.42;59.70;96596.13;10406902;28;20617;-28
2023/09/01 02:45:45;;;;;;;1.93;1.13;;;;;;;20.43;59.44;96589.31;10405400;28;20037;-29
2023/09/01 02:50:45;;;;;;;0.90;0.80;;;;;;;20.43;58.40;96594.41;10414148;28;20712;-28
2023/09/01 02:55:46;;;;;;;1.30;1.00;;;;;;;20.39;58.78;96587.66;10407801;28;20411;-27
2023/09/01 03:00:46;;;;;;;1.90;1.02;;;;;;;20.40;58.82;96584.25;10399992;28;20037;-29
2023/09/01 03:05:50;;;;;;;1.67;0.90;;;;;;;20.42;58.57;96592.72;10406758;28;20040;-30
2023/09/01 03:10:51;;;;;;;2.47;1.30;;;;;;;20.43;59.54;96574.06;10408686;28;20404;-28
2023/09/01 03:15:54;;;;;;;1.50;0.93;;;;;;;20.43;59.44;96574.06;10395942;28;20033;-28
2023/09/01 03:21:11;;;;;;;2.15;1.17;;;;;;;20.35;58.64;96585.16;10407327;28;20026;-29
2023/09/01 03:26:11;;;;;;;0.93;0.80;;;;;;;20.33;58.88;96581.78;10401558;28;20484;-29
2023/09/01 03:31:11;;;;;;;3.13;1.17;;;;;;;20.42;59.28;96582.56;10399825;28;20300;-29
2023/09/01 03:36:14;;;;;;;1.60;0.77;;;;;;;20.30;58.91;96593.69;10404415;28;20029;-29
2023/09/01 03:41:14;;;;;;;1.00;0.77;;;;;;;20.32;59.16;96586.88;10408158;28;20025;-29
2023/09/01 03:46:15;;;;;;;1.87;0.73;;;;;;;20.27;59.78;96586.91;10404261;28;20033;-28
2023/09/01 03:51:18;;;;;;;1.67;1.10;;;;;;;20.19;60.48;96590.41;10406177;28;20782;-29
2023/09/01 03:56:20;;;;;;;0.88;0.60;;;;;;;20.15;61.35;96581.09;10406092;28;20029;-29
2023/09/01 04:01:20;;;;;;;2.60;0.80;;;;;;;20.16;61.65;96592.94;10395714;28;20033;-29
2023/09/01 04:06:21;;;;;;;1.95;0.60;;;;;;;20.09;63.45;96592.16;10406364;28;20033;-28
2023/09/01 04:11:21;;;;;;;2.23;0.60;;;;;;;20.19;62.19;96603.13;10414103;28;20760;-28
2023/09/01 04:16:22;;;;;;;0.97;0.60;;;;;;;20.15;63.03;96593.81;10406679;28;20488;-28
2023/09/01 04:21:23;;;;;;;2.13;0.82;;;;;;;20.14;63.19;96595.53;10411679;28;20060;-28
2023/09/01 04:26:23;;;;;;;3.58;0.90;;;;;;;20.14;63.54;96594.66;10414155;28;20440;-28
2023/09/01 04:31:23;;;;;;;1.47;0.90;;;;;;;20.15;63.40;96586.19;10407730;28;20037;-28
2023/09/01 04:36:24;;;;;;;4.40;1.10;;;;;;;20.23;63.75;96586.97;10412148;28;20860;-29
2023/09/01 04:41:24;;;;;;;6.85;1.90;;;;;;;20.33;63.32;96586.06;10410798;28;20048;-28
2023/09/01 04:46:25;;;;;;;5.17;1.67;;;;;;;20.34;63.60;96587.72;10408880;28;20351;-29
2023/09/01 04:51:25;;;;;;;5.95;1.52;;;;;;;20.32;63.16;96591.97;10412650;28;20041;-28
2023/09/01 04:56:25;;;;;;;2.07;0.80;;;;;;;20.29;63.69;96597.09;10410409;28;20043;-28
2023/09/01 05:01:26;;;;;;;2.73;0.83;;;;;;;20.24;63.76;96591.19;10404019;28;20025;-29
2023/09/01 05:06:26;;;;;;;3.50;0.90;;;;;;;20.17;63.66;96579.41;10407963;28;20296;-29
2023/09/01 05:11:27;;;;;;;3.97;1.30;;;;;;;20.20;63.69;96584.47;10413307;28;20030;-28
2023/09/01 05:16:27;;;;;;;2.10;0.73;;;;;;;20.22;63.55;96582.75;10411609;28;21087;-28
2023/09/01 05:21:27;;;;;;;2.85;0.98;;;;;;;20.21;63.61;96579.38;10411821;28;20282;-28
2023/09/01 05:26:28;;;;;;;3.20;0.90;;;;;;;20.22;63.57;96598.00;10407388;28;20033;-28
2023/09/01 05:31:29;;;;;;;2.03;1.20;;;;;;;20.21;63.71;96596.31;10410200;28;20037;-28
2023/09/01 05:36:32;;;;;;;2.33;1.15;;;;;;;20.19;63.76;96608.19;10406457;28;20039;-28
2023/09/01 05:41:32;;;;;;;1.88;1.10;;;;;;;20.18;63.47;96611.59;10410869;28;20493;-28
2023/09/01 05:46:33;;;;;;;2.97;1.00;;;;;;;20.21;63.79;96601.41;10409583;28;20144;-28
2023/09/01 05:51:33;;;;;;;2.65;0.90;;;;;;;20.18;63.84;96601.44;10405045;28;20030;-29
2023/09/01 05:56:33;;;;;;;2.67;0.90;;;;;;;20.20;63.63;96609.88;10413987;28;20029;-28
2023/09/01 06:01:36;;;;;;;1.23;0.90;;;;;;;20.17;63.86;96604.84;10410315;28;20041;-29
2023/09/01 06:06:36;;;;;;;2.97;1.00;;;;;;;20.15;63.73;96598.91;10409232;28;20032;-27
2023/09/01 06:11:37;;;;;;;1.77;0.83;;;;;;;20.18;63.90;96606.53;10410373;28;20048;-29
2023/09/01 06:16:37;;;;;;;2.22;0.88;;;;;;;20.23;63.48;96614.94;10409332;28;20295;-28
2023/09/01 06:21:37;;;;;;;2.70;0.90;;;;;;;20.21;63.85;96611.56;10407058;28;20035;-28
2023/09/01 06:26:38;;;;;;;2.87;0.93;;;;;;;20.19;63.76;96615.81;10410664;28;20292;-28
2023/09/01 06:31:38;;;;;;;3.67;1.20;;;;;;;20.19;63.81;96620.91;10407800;28;20303;-29
2023/09/01 06:36:39;;;;;;;0.83;0.63;;;;;;;20.19;64.22;96623.44;10405014;28;20041;-28
2023/09/01 06:41:39;;;;;;;1.93;1.20;;;;;;;20.27;63.63;96621.69;10398548;28;21224;-28
2023/09/01 06:46:39;;;;;;;3.33;1.20;;;;;;;20.36;62.96;96621.59;10407443;28;20296;-28
2023/09/01 06:51:40;;;;;;;1.87;0.87;;;;;;;20.38;62.43;96624.97;10404431;28;20033;-29
2023/09/01 06:56:40;;;;;;;2.30;0.80;;;;;;;20.43;62.15;96634.25;10412151;28;20037;-29
2023/09/01 07:01:40;;;;;;;3.50;0.80;;;;;;;20.45;62.20;96635.91;10408237;28;20040;-30
2023/09/01 07:06:41;;;;;;;1.70;0.83;;;;;;;20.46;61.81;96644.41;10404409;28;20068;-29
2023/09/01 07:11:41;;;;;;;3.37;1.33;;;;;;;20.48;61.78;96648.59;10408093;28;20056;-29
2023/09/01 07:16:41;;;;;;;7.27;1.10;;;;;;;20.46;61.73;96642.69;10406279;28;20041;-28
2023/09/01 07:21:42;;;;;;;10.83;2.67;;;;;;;20.49;62.55;96629.97;10405847;28;20033;-29
2023/09/01 07:26:43;;;;;;;7.80;1.93;;;;;;;20.46;62.15;96639.31;10408634;28;20120;-28
2023/09/01 07:31:43;;;;;;;5.43;2.00;;;;;;;20.42;62.69;96632.56;10405471;28;20048;-28
2023/09/01 07:36:46;;;;;;;5.37;1.30;;;;;;;20.41;62.72;96643.59;10408371;28;20430;-28
2023/09/01 07:41:46;;;;;;;7.75;2.17;;;;;;;20.46;62.32;96645.22;10405749;28;20048;-28
2023/09/01 07:46:47;;;;;;;4.97;1.75;;;;;;;20.50;62.14;96646.91;10405111;28;20488;-29
2023/09/01 07:51:48;;;;;;;5.63;1.53;;;;;;;20.51;61.72;96645.19;10407643;28;20044;-29
2023/09/01 07:56:48;;;;;;;2.83;1.33;;;;;;;20.49;62.66;96654.53;10407073;28;20508;-29
2023/09/01 08:01:48;;;;;;;11.67;1.80;;;;;;;20.50;62.37;96651.13;10387693;28;20045;-28
2023/09/01 08:06:49;;;;;;;2.77;1.40;;;;;;;20.48;61.81;96647.78;10404702;28;20043;-29
2023/09/01 08:11:49;;;;;;;10.37;2.30;;;;;;;20.48;62.43;96652.84;10398330;28;20034;-29
2023/09/01 08:16:49;;;;;;;2.33;1.23;;;;;;;20.52;62.46;96655.34;10404154;28;20041;-28
2023/09/01 08:21:50;;;;;;;5.90;1.60;;;;;;;20.52;62.43;96654.50;10406523;28;20550;-28
2023/09/01 08:26:51;;;;;;;4.77;1.70;;;;;;;20.53;62.08;96640.91;10407379;28;20480;-29
2023/09/01 08:31:51;;;;;;;5.10;1.13;;;;;;;20.51;62.38;96658.75;10403607;28;20045;-29
2023/09/01 08:36:51;;;;;;;1.73;1.10;;;;;;;20.52;61.94;96660.44;10404065;28;20067;-28
2023/09/01 08:41:52;;;;;;;3.90;1.50;;;;;;;20.53;62.98;96667.22;10411385;28;20037;-28
2023/09/01 08:46:55;;;;;;;5.55;1.42;;;;;;;20.54;62.05;96668.06;10390167;28;20034;-28
2023/09/01 08:51:57;;;;;;;6.22;1.35;;;;;;;20.54;61.68;96668.91;10392394;28;20068;-29
2023/09/01 08:56:57;;;;;;;2.78;1.10;;;;;;;20.53;62.22;96661.28;10404695;28;20502;-28
2023/09/01 09:01:57;;;;;;;4.90;1.07;;;;;;;20.53;62.47;96657.03;10407944;28;20033;-28
2023/09/01 09:07:15;;;;;;;3.70;1.00;;;;;;;20.55;62.11;96654.50;10419166;28;21142;-29
2023/09/01 09:12:16;;;;;;;24.42;3.20;;;;;;;20.44;62.31;96652.03;10407494;28;20358;-29
2023/09/01 09:17:17;;;;;;;33.00;3.53;;;;;;;20.55;62.01;96654.50;10393221;28;20083;-29
2023/09/01 09:22:18;;;;;;;27.20;2.88;;;;;;;20.55;62.51;96668.03;10414825;28;20292;-28
2023/09/01 09:27:20;;;;;;;17.80;1.93;;;;;;;20.55;61.99;96664.66;10411963;28;20043;-28
2023/09/01 09:32:22;;;;;;;11.95;2.15;;;;;;;20.57;61.43;96668.03;10418175;28;20291;-28
2023/09/01 09:37:23;;;;;;;18.95;2.67;;;;;;;20.59;61.54;96661.22;10411692;28;20026;-28
2023/09/01 09:42:36;;;;;;;6.37;2.37;;;;;;;20.60;63.26;96663.75;10410693;28;20033;-29
2023/09/01 09:47:38;;;;;;;15.18;1.90;;;;;;;20.57;63.29;96661.22;10396904;28;20049;-28
2023/09/01 09:52:38;;;;;;;13.75;2.67;;;;;;;20.57;62.90;96668.84;10409937;28;20048;-28
2023/09/01 09:57:41;;;;;;;9.77;2.50;;;;;;;20.58;61.61;96673.13;10406732;28;20042;-28
2023/09/01 10:02:52;;;;;;;15.32;2.97;;;;;;;20.58;63.38;96672.25;10411550;28;20030;-28
2023/09/01 10:07:54;;;;;;;11.23;2.60;;;;;;;20.53;62.21;96672.31;10401531;28;20026;-28
2023/09/01 10:12:55;;;;;;;17.33;4.60;;;;;;;20.58;61.76;96675.66;10406585;28;20483;-28
2023/09/01 10:17:59;;;;;;;21.00;4.63;;;;;;;20.60;62.13;96668.00;10410613;28;20041;-28
2023/09/01 10:23:05;;;;;;;13.48;3.13;;;;;;;20.58;62.61;96660.41;10406884;28;20029;-29
2023/09/01 10:28:07;;;;;;;8.30;3.22;;;;;;;20.61;62.76;96670.53;10405892;28;20128;-29
2023/09/01 10:33:14;;;;;;;10.38;3.20;;;;;;;20.62;62.87;96672.22;10413463;28;20037;-28
2023/09/01 10:38:17;;;;;;;7.63;2.80;;;;;;;20.66;62.56;96684.06;10403222;28;20037;-28
2023/09/01 10:43:53;;;;;;;7.22;2.30;;;;;;;20.61;62.75;96678.16;10408038;28;20056;-29
2023/09/01 10:48:53;;;;;;;18.33;3.00;;;;;;;20.67;62.72;96680.66;10409568;28;20499;-28
2023/09/01 10:54:01;;;;;;;8.13;2.30;;;;;;;20.71;63.08;96682.31;10404039;28;20029;-29
2023/09/01 10:59:05;;;;;;;9.85;2.17;;;;;;;20.72;62.57;96684.00;10413922;28;20292;-27
2023/09/01 11:04:19;;;;;;;9.68;2.92;;;;;;;20.75;62.62;96678.91;10409198;28;20030;-29
2023/09/01 11:09:19;;;;;;;6.60;1.90;;;;;;;20.76;62.15;96688.22;10406180;28;20060;-28
2023/09/01 11:14:21;;;;;;;11.07;1.50;;;;;;;20.75;62.66;96678.91;10403958;28;20044;-28
2023/09/01 11:19:22;;;;;;;8.25;2.40;;;;;;;20.71;62.71;96661.13;10408751;28;20033;-28
2023/09/01 11:24:22;;;;;;;6.43;1.67;;;;;;;20.76;62.57;96669.53;10401599;28;20399;-28
2023/09/01 11:29:23;;;;;;;3.80;1.48;;;;;;;20.77;62.96;96666.13;10403099;28;20037;-29
2023/09/01 11:34:24;;;;;;;4.60;1.30;;;;;;;20.73;62.54;96665.31;10408125;28;20048;-29
2023/09/01 11:39:25;;;;;;;3.28;1.15;;;;;;;20.77;62.88;96671.22;10403345;28;20026;-28
2023/09/01 11:44:25;;;;;;;4.60;1.55;;;;;;;20.77;62.51;96663.59;10400139;28;20396;-28
2023/09/01 11:49:26;;;;;;;2.58;1.48;;;;;;;20.76;62.49;96660.22;10409064;28;20474;-29
2023/09/01 11:54:39;;;;;;;9.37;1.33;;;;;;;20.75;62.75;96656.00;10403137;28;20506;-28
2023/09/01 11:59:49;;;;;;;1.33;1.20;;;;;;;20.76;62.44;96659.34;10405672;28;20784;-28
2023/09/01 12:04:51;;;;;;;5.05;1.45;;;;;;;20.76;62.57;96655.13;10408400;28;20037;-28
2023/09/01 12:09:55;;;;;;;25.80;7.28;;;;;;;20.72;62.27;96650.91;10406713;28;20030;-28
2023/09/01 12:15:03;;;;;;;16.40;4.28;;;;;;;20.74;62.60;96643.28;10396383;28;20507;-28
2023/09/01 12:20:04;;;;;;;13.98;3.67;;;;;;;20.73;62.61;96655.13;10404518;28;20112;-28
2023/09/01 12:25:05;;;;;;;14.48;3.63;;;;;;;20.74;62.86;96649.22;10396154;28;20098;-28
2023/09/01 12:30:07;;;;;;;12.70;2.88;;;;;;;20.72;62.79;96638.19;10402225;28;20506;-28
2023/09/01 12:35:08;;;;;;;8.52;2.40;;;;;;;20.70;62.90;96628.88;10416404;28;20030;-28
2023/09/01 12:40:10;;;;;;;8.05;2.10;;;;;;;20.72;62.72;96634.81;10412783;28;20049;-29
2023/09/01 12:45:11;;;;;;;10.93;2.53;;;;;;;20.73;62.70;96628.88;10403127;28;20025;-28
2023/09/01 12:50:11;;;;;;;6.35;1.90;;;;;;;20.74;62.83;96622.91;10417113;28;20419;-29
2023/09/01 12:55:11;;;;;;;10.60;2.90;;;;;;;20.75;62.50;96629.69;10419392;28;20041;-28
2023/09/01 13:00:12;;;;;;;6.27;1.50;;;;;;;20.71;62.56;96618.69;10414374;28;20030;-28
2023/09/01 13:05:13;;;;;;;5.85;1.63;;;;;;;20.73;62.74;96616.97;10413861;28;20651;-28
2023/09/01 13:10:18;;;;;;;12.23;1.53;;;;;;;20.68;62.87;96621.28;10410200;28;20033;-29
2023/09/01 13:15:18;;;;;;;4.63;1.52;;;;;;;20.71;62.56;96623.78;10399956;28;20300;-28
2023/09/01 13:20:19;;;;;;;4.35;1.13;;;;;;;20.72;62.70;96615.28;10411189;28;20037;-27
2023/09/01 13:25:19;;;;;;;3.60;2.00;;;;;;;20.74;62.66;96620.38;10410392;28;20029;-28
2023/09/01 13:30:19;;;;;;;4.60;1.63;;;;;;;20.74;62.63;96616.16;10406299;28;20030;-29
2023/09/01 13:35:20;;;;;;;3.45;1.10;;;;;;;20.73;62.56;96613.59;10410775;28;20526;-28
2023/09/01 13:40:20;;;;;;;3.67;1.40;;;;;;;20.74;62.68;96616.16;10409350;28;20487;-28
2023/09/01 13:45:20;;;;;;;2.17;1.07;;;;;;;20.74;62.24;96611.06;10411717;28;20029;-29
2023/09/01 13:50:22;;;;;;;5.33;1.43;;;;;;;20.76;62.46;96603.38;10417582;28;20472;-29
2023/09/01 13:55:22;;;;;;;8.48;2.50;;;;;;;20.74;62.40;96605.97;10417169;28;20040;-28
2023/09/01 14:00:23;;;;;;;2.30;1.00;;;;;;;20.72;62.37;96610.22;10407496;28;20041;-28
2023/09/01 14:05:23;;;;;;;3.33;1.30;;;;;;;20.74;62.16;96605.97;10409202;28;20037;-28
2023/09/01 14:10:23;;;;;;;1.43;0.83;;;;;;;20.69;62.19;96581.41;10404007;28;20043;-28
2023/09/01 14:15:24;;;;;;;4.70;1.17;;;;;;;20.75;62.22;96597.47;10406811;28;20045;-28
2023/09/01 14:20:26;;;;;;;3.28;1.27;;;;;;;20.75;62.22;96597.47;10411516;28;20026;-29
2023/09/01 14:25:27;;;;;;;3.35;1.10;;;;;;;20.75;62.26;96596.63;10402596;28;20033;-29
2023/09/01 14:30:28;;;;;;;5.80;1.60;;;;;;;20.74;62.33;96600.88;10403354;28;20408;-28
2023/09/01 14:35:28;;;;;;;3.33;1.38;;;;;;;20.72;62.39;96592.41;10410525;28;20140;-30
2023/09/01 14:40:28;;;;;;;3.50;1.37;;;;;;;20.74;62.08;96590.69;10405594;28;20033;-28
2023/09/01 14:45:29;;;;;;;4.07;1.00;;;;;;;20.73;62.44;96593.25;10405227;28;20084;-28
2023/09/01 14:50:29;;;;;;;2.87;1.23;;;;;;;20.74;62.00;96594.94;10410974;28;20034;-28
2023/09/01 14:55:32;;;;;;;2.67;1.13;;;;;;;20.74;61.96;96590.69;10415934;28;20128;-28
2023/09/01 15:00:32;;;;;;;3.25;1.10;;;;;;;20.74;62.45;96595.78;10425386;28;20026;-28
2023/09/01 15:05:36;;;;;;;1.80;1.00;;;;;;;20.77;62.00;96600.84;10428330;28;20037;-28
2023/09/01 15:10:38;;;;;;;6.80;1.60;;;;;;;20.79;62.26;96605.91;10411616;28;20041;-28
2023/09/01 15:15:39;;;;;;;11.90;2.42;;;;;;;20.79;62.80;96600.81;10407971;28;20037;-29
2023/09/01 15:20:39;;;;;;;6.07;1.83;;;;;;;20.81;62.02;96601.66;10422710;28;20025;-28
2023/09/01 15:25:40;;;;;;;23.05;2.63;;;;;;;20.79;62.20;96594.03;10405748;28;20037;-30
2023/09/01 15:30:40;;;;;;;9.53;2.53;;;;;;;20.79;62.08;96599.09;10402571;28;20427;-28
2023/09/01 15:35:41;;;;;;;8.73;1.90;;;;;;;20.80;62.02;96600.78;10425424;28;20279;-29
2023/09/01 15:40:41;;;;;;;10.10;1.70;;;;;;;20.80;62.35;96590.59;10424876;28;20029;-29
2023/09/01 15:45:46;;;;;;;10.27;2.60;;;;;;;20.81;62.26;96587.19;10425215;28;20682;-29
2023/09/01 15:50:46;;;;;;;6.10;2.08;;;;;;;20.83;62.52;96597.38;10404159;28;20073;-28
2023/09/01 15:55:46;;;;;;;13.43;3.80;;;;;;;20.82;63.05;96598.25;10409003;28;20048;-28
2023/09/01 16:00:51;;;;;;;9.77;2.17;;;;;;;20.79;62.33;96588.94;10399240;28;20034;-28
2023/09/01 16:05:51;;;;;;;4.95;1.52;;;;;;;20.79;62.12;96588.94;10418496;28;20065;-28
2023/09/01 16:10:52;;;;;;;7.93;2.07;;;;;;;20.78;62.15;96601.66;10413090;28;20033;-28
2023/09/01 16:15:52;;;;;;;7.17;2.60;;;;;;;20.80;62.03;96600.78;10407379;28;20048;-28
2023/09/01 16:20:52;;;;;;;8.03;1.93;;;;;;;20.79;62.10;96599.09;10414797;28;20084;-29
2023/09/01 16:25:57;;;;;;;9.80;2.27;;;;;;;20.78;62.29;96597.44;10417870;28;20500;-29
2023/09/01 16:30:57;;;;;;;5.88;1.77;;;;;;;20.78;62.12;96597.44;10408984;28;20033;-28
2023/09/01 16:36:00;;;;;;;3.20;1.57;;;;;;;20.77;62.19;96585.56;10415125;28;20025;-28
2023/09/01 16:41:00;;;;;;;6.82;2.05;;;;;;;20.77;62.08;96585.56;10414382;28;20291;-29
2023/09/01 16:46:01;;;;;;;5.57;1.60;;;;;;;20.77;62.21;96587.25;10411861;28;20409;-28
2023/09/01 16:51:02;;;;;;;3.17;1.38;;;;;;;20.77;62.08;96590.66;10413843;28;20403;-29
2023/09/01 16:56:02;;;;;;;3.40;1.42;;;;;;;20.77;62.15;96593.19;10415929;28;20037;-28
2023/09/01 17:01:03;;;;;;;3.20;1.67;;;;;;;20.78;62.15;96594.03;10406122;28;20527;-29
2023/09/01 17:06:03;;;;;;;2.90;1.20;;;;;;;20.75;62.29;96594.06;10410559;28;20038;-28
2023/09/01 17:11:04;;;;;;;3.40;1.37;;;;;;;20.77;62.12;96595.75;10411897;28;20303;-28
2023/09/01 17:16:04;;;;;;;2.97;1.50;;;;;;;20.78;62.27;96591.47;10404212;28;20037;-28
2023/09/01 17:21:06;;;;;;;3.38;1.40;;;;;;;20.77;62.38;96593.19;10408544;28;20076;-29
2023/09/01 17:26:06;;;;;;;3.00;1.20;;;;;;;20.75;62.38;96597.47;10411529;28;20041;-29
2023/09/01 17:31:06;;;;;;;2.93;1.57;;;;;;;20.75;62.29;96596.63;10406155;28;20041;-28
2023/09/01 17:36:07;;;;;;;6.17;1.43;;;;;;;20.76;62.39;96586.44;10409866;28;20092;-28
2023/09/01 17:41:11;;;;;;;3.00;1.30;;;;;;;20.76;62.10;96595.75;10412483;28;20112;-29
2023/09/01 17:46:12;;;;;;;3.08;1.27;;;;;;;20.76;62.31;96600.84;10410801;28;20056;-28
2023/09/01 17:51:12;;;;;;;2.30;1.10;;;;;;;20.70;62.26;96594.13;10409968;28;20471;-29
2023/09/01 17:56:13;;;;;;;4.20;1.48;;;;;;;20.77;62.20;96607.59;10415187;28;20116;-28
2023/09/01 18:01:14;;;;;;;5.53;1.10;;;;;;;20.76;62.23;96619.50;10410612;28;20033;-28
2023/09/01 18:06:14;;;;;;;2.08;1.10;;;;;;;20.74;61.79;96623.78;10418235;28;20462;-29
2023/09/01 18:11:15;;;;;;;1.42;0.80;;;;;;;20.74;62.22;96626.31;10411035;28;20064;-28
2023/09/01 18:16:16;;;;;;;1.70;0.90;;;;;;;20.76;62.09;96634.78;10409865;28;20037;-28
2023/09/01 18:21:16;;;;;;;1.60;0.82;;;;;;;20.75;62.28;96643.28;10411669;28;20026;-28
2023/09/01 18:26:21;;;;;;;1.07;0.93;;;;;;;20.75;62.25;96656.00;10407263;28;20025;-28
2023/09/01 18:31:23;;;;;;;2.35;1.17;;;;;;;20.74;62.21;96654.31;10409258;28;20045;-30
2023/09/01 18:36:25;;;;;;;1.83;0.80;;;;;;;20.71;62.09;96661.94;10408719;28;20563;-28
2023/09/01 18:41:27;;;;;;;2.38;1.40;;;;;;;20.72;62.13;96668.72;10411113;28;20506;-29
2023/09/01 18:46:29;;;;;;;2.15;1.10;;;;;;;20.75;61.92;96688.22;10408272;28;20044;-28
2023/09/01 18:51:30;;;;;;;2.20;1.08;;;;;;;20.74;62.00;96692.47;10411067;28;20042;-28
2023/09/01 18:56:30;;;;;;;2.17;0.98;;;;;;;20.74;62.16;96692.47;10416919;28;20463;-29
2023/09/01 19:01:31;;;;;;;2.27;0.90;;;;;;;20.73;61.92;96688.22;10408166;28;20033;-29
2023/09/01 19:06:31;;;;;;;1.00;0.80;;;;;;;20.75;61.82;96704.34;10409546;28;20071;-29
2023/09/01 19:11:32;;;;;;;2.23;1.03;;;;;;;20.74;62.08;96707.75;10405681;28;20299;-28
2023/09/01 19:16:33;;;;;;;3.53;1.37;;;;;;;20.72;61.91;96706.06;10406471;28;20295;-28
2023/09/01 19:21:33;;;;;;;2.08;0.80;;;;;;;20.75;61.89;96717.06;10401387;28;20021;-28
2023/09/01 19:26:34;;;;;;;1.52;1.10;;;;;;;20.75;61.77;96721.28;10408723;28;20037;-27
2023/09/01 19:31:36;;;;;;;2.07;1.00;;;;;;;20.74;62.07;96724.69;10406262;28;20091;-28
2023/09/01 19:36:37;;;;;;;1.52;1.13;;;;;;;20.74;61.83;96733.19;10408608;28;20251;-28
2023/09/01 19:41:38;;;;;;;1.08;0.90;;;;;;;20.72;61.82;96727.25;10402334;28;20480;-29
2023/09/01 19:46:39;;;;;;;2.70;1.17;;;;;;;20.74;61.76;96732.31;10405958;28;20033;-27
2023/09/01 19:51:43;;;;;;;1.42;0.80;;;;;;;20.74;62.07;96743.38;10407635;28;20435;-29
2023/09/01 19:56:43;;;;;;;2.53;0.90;;;;;;;20.74;61.79;96742.50;10411136;28;20073;-29
2023/09/01 20:01:43;;;;;;;2.00;0.70;;;;;;;20.74;61.75;96748.44;10404938;28;20053;-30
2023/09/01 20:06:44;;;;;;;2.58;1.17;;;;;;;20.73;61.72;96749.28;10401865;28;20033;-29
2023/09/01 20:11:44;;;;;;;2.45;1.17;;;;;;;20.72;61.86;96750.16;10407339;28;20036;-29
2023/09/01 20:16:45;;;;;;;3.07;0.90;;;;;;;20.73;61.77;96751.81;10404355;28;20499;-28
2023/09/01 20:21:45;;;;;;;1.40;0.90;;;;;;;20.73;61.63;96759.47;10407071;28;20283;-30
2023/09/01 20:26:46;;;;;;;1.47;0.80;;;;;;;20.72;61.52;96760.31;10401333;28;20034;-28
2023/09/01 20:31:46;;;;;;;2.23;1.07;;;;;;;20.70;61.74;96756.94;10410081;28;20307;-29
2023/09/01 20:36:46;;;;;;;0.83;0.60;;;;;;;20.73;61.69;96762.00;10405727;28;20108;-29
2023/09/01 20:41:47;;;;;;;1.23;0.70;;;;;;;20.72;61.64;96765.41;10407099;28;20033;-29
2023/09/01 20:46:47;;;;;;;1.10;0.80;;;;;;;20.73;61.70;96764.53;10404662;28;20103;-29
2023/09/01 20:51:47;;;;;;;2.90;1.40;;;;;;;20.70;61.64;96762.03;10411127;28;20318;-29
2023/09/01 20:56:49;;;;;;;1.57;0.90;;;;;;;20.73;61.61;96766.25;10414307;28;20094;-28
2023/09/01 21:01:49;;;;;;;0.68;0.47;;;;;;;20.73;61.48;96772.19;10411142;28;20025;-28
2023/09/01 21:06:50;;;;;;;0.93;0.80;;;;;;;20.73;61.63;96771.34;10405611;28;20034;-28
2023/09/01 21:11:50;;;;;;;1.77;0.98;;;;;;;20.72;61.51;96770.50;10414041;28;20041;-28
2023/09/01 21:16:50;;;;;;;1.25;0.90;;;;;;;20.71;61.63;96776.44;10409985;28;20451;-29
2023/09/01 21:21:51;;;;;;;1.70;0.97;;;;;;;20.70;61.62;96772.22;10411756;28;20029;-28
2023/09/01 21:26:52;;;;;;;1.67;1.10;;;;;;;20.72;61.44;96779.84;10413579;28;20069;-29
2023/09/01 21:31:52;;;;;;;1.30;0.80;;;;;;;20.71;61.48;96779.00;10409395;28;20033;-28
2023/09/01 21:36:52;;;;;;;0.77;0.60;;;;;;;20.71;61.33;96789.16;10407769;28;20029;-28
2023/09/01 21:41:53;;;;;;;0.70;0.60;;;;;;;20.71;61.26;96779.00;10412742;28;20767;-29
2023/09/01 21:46:53;;;;;;;0.77;0.60;;;;;;;20.69;61.29;96775.63;10408790;28;20049;-28
2023/09/01 21:51:53;;;;;;;2.83;0.80;;;;;;;20.70;61.44;96784.94;10412471;28;20042;-29
2023/09/01 21:56:54;;;;;;;2.50;0.93;;;;;;;20.71;61.39;96799.34;10412278;28;20415;-28
2023/09/01 22:01:54;;;;;;;1.93;0.80;;;;;;;20.71;61.34;96789.16;10410081;28;20045;-28
2023/09/01 22:06:55;;;;;;;1.17;0.80;;;;;;;20.70;61.14;96790.03;10418216;28;20398;-28
2023/09/01 22:11:55;;;;;;;1.90;1.00;;;;;;;20.71;60.97;96788.34;10411571;28;20048;-28
2023/09/01 22:16:55;;;;;;;1.00;0.90;;;;;;;20.70;61.27;96792.56;10410781;28;20060;-28
2023/09/01 22:21:57;;;;;;;1.20;1.00;;;;;;;20.70;61.41;96797.66;10416121;28;20029;-29
2023/09/01 22:26:58;;;;;;;0.80;0.80;;;;;;;20.70;61.37;96797.66;10411244;28;20276;-29
2023/09/01 22:32:06;;;;;;;2.53;0.73;;;;;;;20.58;62.03;96797.75;10402351;28;20029;-28
2023/09/01 22:37:07;;;;;;;2.63;0.90;;;;;;;20.68;61.47;96794.28;10406295;28;20030;-28
2023/09/01 22:42:07;;;;;;;4.53;0.80;;;;;;;20.69;61.38;96795.13;10409968;28;20025;-29
2023/09/01 22:47:08;;;;;;;1.53;1.07;;;;;;;20.71;61.45;96803.59;10410804;28;20033;-28
2023/09/01 22:52:10;;;;;;;1.13;0.70;;;;;;;20.71;61.44;96801.88;10416102;28;20041;-28
2023/09/01 22:57:11;;;;;;;3.38;0.82;;;;;;;20.72;61.34;96806.13;10402981;28;20053;-28
2023/09/01 23:02:11;;;;;;;0.83;0.70;;;;;;;20.71;61.26;96806.16;10404683;28;20122;-29
2023/09/01 23:07:12;;;;;;;2.27;0.83;;;;;;;20.67;61.36;96800.25;10408569;28;20547;-30
2023/09/01 23:12:12;;;;;;;1.75;0.75;;;;;;;20.71;61.15;96813.78;10408152;28;20284;-29
2023/09/01 23:17:13;;;;;;;4.30;0.90;;;;;;;20.71;61.15;96814.63;10405115;28;20021;-29
2023/09/01 23:22:13;;;;;;;1.83;0.90;;;;;;;20.71;61.21;96809.53;10406726;28;20033;-28